sensor_id;sensor_type;location;lat;lon;timestamp;pressure;altitude;pressure_sealevel;temperature;humidity
21879;BME280;27908;42.708;23.278;2022-07-29T00:02:20;34881.38;;;18.91;100.00
21879;BME280;27908;42.708;23.278;2022-07-29T00:04:46;34715.06;;;18.88;100.00
21879;BME280;27908;42.708;23.278;2022-07-29T00:07:11;34447.84;;;18.87;100.00
21879;BME280;27908;42.708;23.278;2022-07-29T00:09:37;34287.41;;;18.88;100.00
21879;BME280;27908;42.708;23.278;2022-07-29T00:12:02;33940.34;;;18.91;100.00
21879;BME280;27908;42.708;23.278;2022-07-29T00:14:28;33883.16;;;18.81;100.00
21879;BME280;27908;42.708;23.278;2022-07-29T00:16:54;33374.25;;;18.73;100.00
21879;BME280;27908;42.708;23.278;2022-07-29T00:19:19;32476.63;;;18.82;100.00
21879;BME280;27908;42.708;23.278;2022-07-29T00:21:45;32037.44;;;18.85;100.00
21879;BME280;27908;42.708;23.278;2022-07-29T00:24:10;32140.94;;;18.91;100.00
21879;BME280;27908;42.708;23.278;2022-07-29T00:26:36;32336.22;;;18.78;100.00
21879;BME280;27908;42.708;23.278;2022-07-29T00:29:03;31727.28;;;18.74;100.00
21879;BME280;27908;42.708;23.278;2022-07-29T00:31:29;31133.38;;;18.70;100.00
21879;BME280;27908;42.708;23.278;2022-07-29T00:33:55;30594.94;;;18.74;100.00
21879;BME280;27908;42.708;23.278;2022-07-29T00:36:20;29890.00;;;18.67;100.00
21879;BME280;27908;42.708;23.278;2022-07-29T00:38:50;29579.78;;;18.71;100.00
21879;BME280;27908;42.708;23.278;2022-07-29T00:41:16;29267.09;;;18.43;100.00
21879;BME280;27908;42.708;23.278;2022-07-29T00:43:42;27679.78;;;18.52;100.00
21879;BME280;27908;42.708;23.278;2022-07-29T00:46:08;27453.50;;;18.32;100.00
21879;BME280;27908;42.708;23.278;2022-07-29T00:48:34;26856.44;;;18.41;100.00
21879;BME280;27908;42.708;23.278;2022-07-29T00:51:01;26251.47;;;18.43;100.00
21879;BME280;27908;42.708;23.278;2022-07-29T00:53:27;25923.78;;;18.11;100.00
21879;BME280;27908;42.708;23.278;2022-07-29T00:55:57;24892.53;;;18.33;100.00
21879;BME280;27908;42.708;23.278;2022-07-29T00:58:24;24605.25;;;18.43;100.00
21879;BME280;27908;42.708;23.278;2022-07-29T01:00:50;24928.91;;;18.28;100.00
21879;BME280;27908;42.708;23.278;2022-07-29T01:03:15;24898.78;;;18.42;100.00
21879;BME280;27908;42.708;23.278;2022-07-29T01:05:42;24556.91;;;18.44;100.00
21879;BME280;27908;42.708;23.278;2022-07-29T01:08:11;24555.78;;;18.34;100.00
21879;BME280;27908;42.708;23.278;2022-07-29T01:10:38;23863.09;;;18.47;100.00
21879;BME280;27908;42.708;23.278;2022-07-29T01:13:06;23657.81;;;18.52;100.00
21879;BME280;27908;42.708;23.278;2022-07-29T01:15:36;23370.50;;;18.55;100.00
21879;BME280;27908;42.708;23.278;2022-07-29T01:18:11;23356.81;;;18.60;100.00
21879;BME280;27908;42.708;23.278;2022-07-29T01:24:04;22964.53;;;18.63;100.00
21879;BME280;27908;42.708;23.278;2022-07-29T01:26:45;23184.16;;;18.56;100.00
21879;BME280;27908;42.708;23.278;2022-07-29T01:29:22;22838.97;;;18.62;100.00
21879;BME280;27908;42.708;23.278;2022-07-29T01:31:59;22806.09;;;18.63;100.00
21879;BME280;27908;42.708;23.278;2022-07-29T01:34:49;22549.88;;;18.47;100.00
21879;BME280;27908;42.708;23.278;2022-07-29T01:40:08;22792.69;;;18.33;100.00
21879;BME280;27908;42.708;23.278;2022-07-29T01:42:39;22047.47;;;18.35;100.00
21879;BME280;27908;42.708;23.278;2022-07-29T01:45:16;21619.16;;;18.29;100.00
21879;BME280;27908;42.708;23.278;2022-07-29T01:47:50;20941.66;;;18.26;100.00
21879;BME280;27908;42.708;23.278;2022-07-29T01:50:20;20432.91;;;18.40;100.00
21879;BME280;27908;42.708;23.278;2022-07-29T01:52:57;20226.63;;;18.33;100.00
21879;BME280;27908;42.708;23.278;2022-07-29T01:55:29;19935.91;;;18.26;100.00
21879;BME280;27908;42.708;23.278;2022-07-29T01:57:57;19808.84;;;18.36;100.00
21879;BME280;27908;42.708;23.278;2022-07-29T02:00:25;19044.94;;;18.24;100.00
21879;BME280;27908;42.708;23.278;2022-07-29T02:02:53;18455.75;;;18.16;100.00
21879;BME280;27908;42.708;23.278;2022-07-29T02:05:21;18279.34;;;18.15;100.00
21879;BME280;27908;42.708;23.278;2022-07-29T02:07:49;17943.31;;;18.08;100.00
21879;BME280;27908;42.708;23.278;2022-07-29T02:10:20;17000.06;;;18.17;100.00
21879;BME280;27908;42.708;23.278;2022-07-29T02:12:47;16856.41;;;18.24;100.00
21879;BME280;27908;42.708;23.278;2022-07-29T02:15:15;17031.19;;;18.19;100.00
21879;BME280;27908;42.708;23.278;2022-07-29T02:17:45;16285.00;;;18.33;100.00
21879;BME280;27908;42.708;23.278;2022-07-29T02:20:15;16484.41;;;18.25;100.00
21879;BME280;27908;42.708;23.278;2022-07-29T02:22:43;16057.72;;;18.31;100.00
21879;BME280;27908;42.708;23.278;2022-07-29T02:27:55;16510.78;;;18.38;100.00
21879;BME280;27908;42.708;23.278;2022-07-29T02:30:22;15782.84;;;18.44;100.00
21879;BME280;27908;42.708;23.278;2022-07-29T02:32:50;15214.13;;;18.43;100.00
21879;BME280;27908;42.708;23.278;2022-07-29T02:35:16;14794.50;;;18.48;100.00
21879;BME280;27908;42.708;23.278;2022-07-29T02:37:44;14389.69;;;18.50;100.00
21879;BME280;27908;42.708;23.278;2022-07-29T02:40:31;14065.34;;;18.59;100.00
21879;BME280;27908;42.708;23.278;2022-07-29T02:42:57;14066.09;;;18.62;100.00
21879;BME280;27908;42.708;23.278;2022-07-29T02:45:23;13739.66;;;18.62;100.00
21879;BME280;27908;42.708;23.278;2022-07-29T02:47:49;13412.63;;;18.58;100.00
21879;BME280;27908;42.708;23.278;2022-07-29T02:50:21;13410.50;;;18.48;100.00
21879;BME280;27908;42.708;23.278;2022-07-29T02:53:14;13413.34;;;18.62;100.00
21879;BME280;27908;42.708;23.278;2022-07-29T02:55:48;13737.03;;;18.50;100.00
21879;BME280;27908;42.708;23.278;2022-07-29T02:58:28;13736.63;;;18.48;100.00
21879;BME280;27908;42.708;23.278;2022-07-29T03:01:02;13735.56;;;18.43;100.00
21879;BME280;27908;42.708;23.278;2022-07-29T03:03:37;13733.78;;;18.34;100.00
21879;BME280;27908;42.708;23.278;2022-07-29T03:06:03;13733.47;;;18.33;100.00
21879;BME280;27908;42.708;23.278;2022-07-29T03:08:31;13406.59;;;18.29;100.00
21879;BME280;27908;42.708;23.278;2022-07-29T03:10:57;13073.25;;;17.93;100.00
21879;BME280;27908;42.708;23.278;2022-07-29T03:13:23;12750.75;;;18.11;100.00
21879;BME280;27908;42.708;23.278;2022-07-29T03:15:49;11772.19;;;18.06;100.00
21879;BME280;27908;42.708;23.278;2022-07-29T03:18:15;10794.66;;;18.06;100.00
21879;BME280;27908;42.708;23.278;2022-07-29T03:20:41;9815.44;;;17.92;100.00
21879;BME280;27908;42.708;23.278;2022-07-29T03:23:10;9166.50;;;18.08;100.00
21879;BME280;27908;42.708;23.278;2022-07-29T03:25:36;8839.69;;;17.99;100.00
21879;BME280;27908;42.708;23.278;2022-07-29T03:28:01;8515.06;;;18.07;100.00
21879;BME280;27908;42.708;23.278;2022-07-29T03:30:27;7863.78;;;18.05;100.00
21879;BME280;27908;42.708;23.278;2022-07-29T03:32:55;7211.81;;;17.96;100.00
21879;BME280;27908;42.708;23.278;2022-07-29T03:35:21;6235.53;;;17.94;100.00
21879;BME280;27908;42.708;23.278;2022-07-29T03:37:46;5585.09;;;17.96;100.00
21879;BME280;27908;42.708;23.278;2022-07-29T03:40:17;5585.03;;;17.95;100.00
21879;BME280;27908;42.708;23.278;2022-07-29T03:42:43;5259.66;;;17.94;100.00
21879;BME280;27908;42.708;23.278;2022-07-29T03:45:14;4934.28;;;17.92;100.00
21879;BME280;27908;42.708;23.278;2022-07-29T03:47:47;4934.38;;;17.93;100.00
21879;BME280;27908;42.708;23.278;2022-07-29T03:50:14;4609.00;;;17.90;100.00
21879;BME280;27908;42.708;23.278;2022-07-29T03:52:40;4608.94;;;17.89;100.00
21879;BME280;27908;42.708;23.278;2022-07-29T03:55:07;4609.78;;;18.03;100.00
21879;BME280;27908;42.708;23.278;2022-07-29T03:57:34;5260.00;;;17.99;100.00
21879;BME280;27908;42.708;23.278;2022-07-29T04:00:03;5259.25;;;17.88;100.00
21879;BME280;27908;42.708;23.278;2022-07-29T04:02:30;5910.31;;;17.95;100.00
21879;BME280;27908;42.708;23.278;2022-07-29T04:04:56;5908.78;;;17.77;100.00
21879;BME280;27908;42.708;23.278;2022-07-29T04:07:22;6235.59;;;17.95;100.00
21879;BME280;27908;42.708;23.278;2022-07-29T04:09:47;5586.25;;;18.11;100.00
21879;BME280;27908;42.708;23.278;2022-07-29T04:12:13;5261.84;;;18.24;100.00
21879;BME280;27908;42.708;23.278;2022-07-29T04:14:38;5262.59;;;18.34;100.00
21879;BME280;27908;42.708;23.278;2022-07-29T04:17:04;5914.03;;;18.40;100.00
21879;BME280;27908;42.708;23.278;2022-07-29T04:19:31;6566.94;;;18.58;100.00
21879;BME280;27908;42.708;23.278;2022-07-29T04:21:57;6567.69;;;18.66;100.00
21879;BME280;27908;42.708;23.278;2022-07-29T04:24:23;6894.94;;;18.81;100.00
21879;BME280;27908;42.708;23.278;2022-07-29T04:26:48;6895.63;;;18.88;100.00
21879;BME280;27908;42.708;23.278;2022-07-29T04:29:14;7222.81;;;19.00;100.00
21879;BME280;27908;42.708;23.278;2022-07-29T04:31:40;7549.25;;;19.04;100.00
21879;BME280;27908;42.708;23.278;2022-07-29T04:34:06;8201.59;;;19.06;100.00
21879;BME280;27908;42.708;23.278;2022-07-29T04:36:32;8202.00;;;19.10;100.00
21879;BME280;27908;42.708;23.278;2022-07-29T04:38:57;8203.16;;;19.19;100.00
21879;BME280;27908;42.708;23.278;2022-07-29T04:41:23;8204.06;;;19.26;100.00
21879;BME280;27908;42.708;23.278;2022-07-29T04:43:48;7879.31;;;19.39;100.00
21879;BME280;27908;42.708;23.278;2022-07-29T04:46:14;8532.38;;;19.43;100.00
21879;BME280;27908;42.708;23.278;2022-07-29T04:48:39;9509.47;;;19.29;100.00
21879;BME280;27908;42.708;23.278;2022-07-29T04:51:05;10162.34;;;19.30;100.00
21879;BME280;27908;42.708;23.278;2022-07-29T04:53:30;10161.34;;;19.24;100.00
21879;BME280;27908;42.708;23.278;2022-07-29T04:55:56;10487.16;;;19.21;100.00
21879;BME280;27908;42.708;23.278;2022-07-29T04:58:21;10486.63;;;19.17;100.00
21879;BME280;27908;42.708;23.278;2022-07-29T05:00:49;9835.75;;;19.29;100.00
21879;BME280;27908;42.708;23.278;2022-07-29T05:03:14;10488.72;;;19.30;100.00
21879;BME280;27908;42.708;23.278;2022-07-29T05:05:39;10489.44;;;19.35;100.00
21879;BME280;27908;42.708;23.278;2022-07-29T05:08:06;10814.84;;;19.28;100.00
21879;BME280;27908;42.708;23.278;2022-07-29T05:10:31;10818.47;;;19.51;100.00
21879;BME280;27908;42.708;23.278;2022-07-29T05:12:57;11146.38;;;19.59;100.00
21879;BME280;27908;42.708;23.278;2022-07-29T05:15:23;11148.81;;;19.73;100.00
21879;BME280;27908;42.708;23.278;2022-07-29T05:17:49;11802.72;;;19.75;100.00
21879;BME280;27908;42.708;23.278;2022-07-29T05:20:14;11806.38;;;19.96;100.00
21879;BME280;27908;42.708;23.278;2022-07-29T05:22:39;11481.84;;;20.09;100.00
21879;BME280;27908;42.708;23.278;2022-07-29T05:25:05;12138.75;;;20.25;100.00
21879;BME280;27908;42.708;23.278;2022-07-29T05:27:31;12795.66;;;20.39;100.00
21879;BME280;27908;42.708;23.278;2022-07-29T05:29:56;12798.56;;;20.54;100.00
21879;BME280;27908;42.708;23.278;2022-07-29T05:32:22;12800.13;;;20.62;100.00
21879;BME280;27908;42.708;23.278;2022-07-29T05:34:47;13127.53;;;20.62;100.00
21879;BME280;27908;42.708;23.278;2022-07-29T05:37:12;12802.16;;;20.72;100.00
21879;BME280;27908;42.708;23.278;2022-07-29T05:39:39;13783.31;;;20.67;100.00
21879;BME280;27908;42.708;23.278;2022-07-29T05:42:08;13457.66;;;20.75;100.00
21879;BME280;27908;42.708;23.278;2022-07-29T05:44:37;13823.81;;;20.65;100.00
21879;BME280;27908;42.708;23.278;2022-07-29T05:47:03;14114.41;;;20.84;100.00
21879;BME280;27908;42.708;23.278;2022-07-29T05:49:28;14824.53;;;20.89;100.00
21879;BME280;27908;42.708;23.278;2022-07-29T05:51:53;14772.50;;;20.97;100.00
21879;BME280;27908;42.708;23.278;2022-07-29T05:54:19;15101.91;;;21.04;100.00
21879;BME280;27908;42.708;23.278;2022-07-29T05:56:44;15857.53;;;21.15;100.00
21879;BME280;27908;42.708;23.278;2022-07-29T05:59:09;16474.88;;;21.05;100.00
21879;BME280;27908;42.708;23.278;2022-07-29T06:01:35;16447.69;;;21.19;100.00
21879;BME280;27908;42.708;23.278;2022-07-29T06:04:05;16628.44;;;21.25;100.00
21879;BME280;27908;42.708;23.278;2022-07-29T06:06:30;17364.66;;;21.37;99.32
21879;BME280;27908;42.708;23.278;2022-07-29T06:08:55;17461.81;;;21.45;98.53
21879;BME280;27908;42.708;23.278;2022-07-29T06:11:21;17517.53;;;21.52;98.99
21879;BME280;27908;42.708;23.278;2022-07-29T06:13:46;17671.59;;;21.72;97.71
21879;BME280;27908;42.708;23.278;2022-07-29T06:16:12;17980.38;;;21.93;96.50
21879;BME280;27908;42.708;23.278;2022-07-29T06:18:37;19996.69;;;21.90;94.55
21879;BME280;27908;42.708;23.278;2022-07-29T06:21:07;19716.00;;;21.95;95.31
21879;BME280;27908;42.708;23.278;2022-07-29T06:23:33;21216.13;;;22.05;92.66
21879;BME280;27908;42.708;23.278;2022-07-29T06:25:59;21256.56;;;22.33;92.47
21879;BME280;27908;42.708;23.278;2022-07-29T06:28:25;22967.78;;;22.46;90.82
21879;BME280;27908;42.708;23.278;2022-07-29T06:30:51;24219.03;;;22.62;88.78
21879;BME280;27908;42.708;23.278;2022-07-29T06:33:17;24544.19;;;22.65;89.36
21879;BME280;27908;42.708;23.278;2022-07-29T06:35:43;25493.75;;;22.84;88.15
21879;BME280;27908;42.708;23.278;2022-07-29T06:38:10;25596.28;;;23.08;87.09
21879;BME280;27908;42.708;23.278;2022-07-29T06:40:36;26116.50;;;23.14;86.69
21879;BME280;27908;42.708;23.278;2022-07-29T06:43:20;29136.72;;;23.40;82.97
21879;BME280;27908;42.708;23.278;2022-07-29T06:45:46;28919.22;;;23.50;84.39
21879;BME280;27908;42.708;23.278;2022-07-29T06:48:11;31025.13;;;23.60;81.18
21879;BME280;27908;42.708;23.278;2022-07-29T06:50:37;30968.53;;;23.71;82.72
21879;BME280;27908;42.708;23.278;2022-07-29T06:53:03;31550.03;;;23.72;81.83
21879;BME280;27908;42.708;23.278;2022-07-29T06:55:28;33131.41;;;23.83;80.15
21879;BME280;27908;42.708;23.278;2022-07-29T06:57:54;35146.66;;;23.77;78.08
21879;BME280;27908;42.708;23.278;2022-07-29T07:00:19;33791.50;;;23.90;81.12
21879;BME280;27908;42.708;23.278;2022-07-29T07:02:45;34068.94;;;24.06;80.51
21879;BME280;27908;42.708;23.278;2022-07-29T07:05:10;33711.06;;;24.18;81.00
21879;BME280;27908;42.708;23.278;2022-07-29T07:07:36;35640.59;;;24.14;78.33
21879;BME280;27908;42.708;23.278;2022-07-29T07:10:01;36182.72;;;24.30;77.69
21879;BME280;27908;42.708;23.278;2022-07-29T07:12:26;35709.66;;;24.35;78.95
21879;BME280;27908;42.708;23.278;2022-07-29T07:14:52;36136.66;;;24.39;78.15
21879;BME280;27908;42.708;23.278;2022-07-29T07:17:17;35620.78;;;24.61;79.19
21879;BME280;27908;42.708;23.278;2022-07-29T07:19:43;36458.25;;;24.67;77.32
21879;BME280;27908;42.708;23.278;2022-07-29T07:22:10;38023.53;;;24.64;75.78
21879;BME280;27908;42.708;23.278;2022-07-29T07:24:35;37487.16;;;24.90;76.95
21879;BME280;27908;42.708;23.278;2022-07-29T07:27:01;37896.47;;;25.06;75.63
21879;BME280;27908;42.708;23.278;2022-07-29T07:29:26;38418.28;;;25.20;74.64
21879;BME280;27908;42.708;23.278;2022-07-29T07:31:52;38481.28;;;25.17;75.09
21879;BME280;27908;42.708;23.278;2022-07-29T07:34:17;40439.75;;;25.41;73.37
21879;BME280;27908;42.708;23.278;2022-07-29T07:36:43;41601.19;;;25.55;71.80
21879;BME280;27908;42.708;23.278;2022-07-29T07:39:08;43472.03;;;25.56;68.96
21879;BME280;27908;42.708;23.278;2022-07-29T07:41:34;43630.84;;;25.64;70.66
21879;BME280;27908;42.708;23.278;2022-07-29T07:43:59;43391.97;;;25.68;71.81
21879;BME280;27908;42.708;23.278;2022-07-29T07:46:25;43907.38;;;25.73;71.82
21879;BME280;27908;42.708;23.278;2022-07-29T07:48:50;44715.53;;;25.69;70.45
21879;BME280;27908;42.708;23.278;2022-07-29T07:51:17;45347.16;;;25.72;68.83
21879;BME280;27908;42.708;23.278;2022-07-29T07:53:42;45354.72;;;25.82;69.92
21879;BME280;27908;42.708;23.278;2022-07-29T07:56:09;45345.06;;;25.98;69.53
21879;BME280;27908;42.708;23.278;2022-07-29T07:58:35;45174.47;;;26.13;70.35
21879;BME280;27908;42.708;23.278;2022-07-29T08:01:01;45647.75;;;26.27;68.39
21879;BME280;27908;42.708;23.278;2022-07-29T08:03:26;46581.03;;;26.33;65.89
21879;BME280;27908;42.708;23.278;2022-07-29T08:05:52;46265.91;;;26.47;68.38
21879;BME280;27908;42.708;23.278;2022-07-29T08:08:19;46140.41;;;26.60;68.54
21879;BME280;27908;42.708;23.278;2022-07-29T08:10:45;46433.88;;;26.69;67.84
21879;BME280;27908;42.708;23.278;2022-07-29T08:13:26;46915.06;;;26.79;66.33
21879;BME280;27908;42.708;23.278;2022-07-29T08:15:56;47666.38;;;26.86;63.85
21879;BME280;27908;42.708;23.278;2022-07-29T08:18:36;48035.84;;;26.72;65.13
21879;BME280;27908;42.708;23.278;2022-07-29T08:21:02;47511.59;;;26.95;67.21
21879;BME280;27908;42.708;23.278;2022-07-29T08:23:28;48583.34;;;26.92;63.68
21879;BME280;27908;42.708;23.278;2022-07-29T08:26:00;48652.09;;;26.87;65.63
21879;BME280;27908;42.708;23.278;2022-07-29T08:28:25;48651.13;;;27.06;64.93
21879;BME280;27908;42.708;23.278;2022-07-29T08:30:51;48857.25;;;27.09;63.94
21879;BME280;27908;42.708;23.278;2022-07-29T08:33:16;49464.91;;;27.25;61.41
21879;BME280;27908;42.708;23.278;2022-07-29T08:35:43;49513.88;;;27.28;62.79
21879;BME280;27908;42.708;23.278;2022-07-29T08:38:08;50658.31;;;27.20;60.84
21879;BME280;27908;42.708;23.278;2022-07-29T08:40:34;50137.91;;;27.35;63.46
21879;BME280;27908;42.708;23.278;2022-07-29T08:43:07;50218.09;;;27.56;63.88
21879;BME280;27908;42.708;23.278;2022-07-29T08:45:43;50380.56;;;27.67;62.52
21879;BME280;27908;42.708;23.278;2022-07-29T08:48:10;51553.84;;;27.74;59.01
21879;BME280;27908;42.708;23.278;2022-07-29T08:50:38;52235.94;;;27.80;58.40
21879;BME280;27908;42.708;23.278;2022-07-29T08:53:05;52140.50;;;27.82;59.83
21879;BME280;27908;42.708;23.278;2022-07-29T08:55:32;52339.38;;;27.97;58.95
21879;BME280;27908;42.708;23.278;2022-07-29T08:57:59;52491.28;;;28.13;57.97
21879;BME280;27908;42.708;23.278;2022-07-29T09:00:26;52818.41;;;28.20;58.71
21879;BME280;27908;42.708;23.278;2022-07-29T09:02:56;53123.47;;;28.22;58.79
21879;BME280;27908;42.708;23.278;2022-07-29T09:05:23;53718.84;;;28.32;56.50
21879;BME280;27908;42.708;23.278;2022-07-29T09:07:50;54246.16;;;28.28;55.65
21879;BME280;27908;42.708;23.278;2022-07-29T09:10:16;54248.66;;;28.40;56.64
21879;BME280;27908;42.708;23.278;2022-07-29T09:12:41;53906.41;;;28.59;58.51
21879;BME280;27908;42.708;23.278;2022-07-29T09:15:08;54389.78;;;28.66;55.57
21879;BME280;27908;42.708;23.278;2022-07-29T09:17:44;54655.91;;;28.89;55.39
21879;BME280;27908;42.708;23.278;2022-07-29T09:20:12;54505.66;;;28.97;57.21
21879;BME280;27908;42.708;23.278;2022-07-29T09:22:38;54738.78;;;29.15;55.78
21879;BME280;27908;42.708;23.278;2022-07-29T09:25:04;54866.28;;;29.43;54.76
21879;BME280;27908;42.708;23.278;2022-07-29T09:27:30;55881.69;;;29.21;53.15
21879;BME280;27908;42.708;23.278;2022-07-29T09:30:00;55747.88;;;29.47;54.29
21879;BME280;27908;42.708;23.278;2022-07-29T09:32:26;56532.38;;;29.38;50.51
21879;BME280;27908;42.708;23.278;2022-07-29T09:35:18;56650.47;;;29.41;52.50
21879;BME280;27908;42.708;23.278;2022-07-29T09:37:44;56789.28;;;29.64;50.58
21879;BME280;27908;42.708;23.278;2022-07-29T09:40:18;56925.94;;;29.84;50.42
21879;BME280;27908;42.708;23.278;2022-07-29T09:42:45;57628.38;;;29.89;46.74
21879;BME280;27908;42.708;23.278;2022-07-29T09:45:11;57395.59;;;30.01;50.18
21879;BME280;27908;42.708;23.278;2022-07-29T09:47:45;57601.63;;;30.08;48.44
21879;BME280;27908;42.708;23.278;2022-07-29T09:50:12;57763.09;;;29.87;50.23
21879;BME280;27908;42.708;23.278;2022-07-29T09:52:46;57712.81;;;29.98;50.99
21879;BME280;27908;42.708;23.278;2022-07-29T09:55:12;57843.53;;;30.14;50.22
21879;BME280;27908;42.708;23.278;2022-07-29T09:57:37;57995.28;;;30.10;49.38
21879;BME280;27908;42.708;23.278;2022-07-29T10:00:06;58133.25;;;30.20;48.08
21879;BME280;27908;42.708;23.278;2022-07-29T10:02:34;58112.34;;;30.40;48.27
21879;BME280;27908;42.708;23.278;2022-07-29T10:05:01;58311.47;;;30.53;46.45
21879;BME280;27908;42.708;23.278;2022-07-29T10:07:52;58498.53;;;30.37;46.55
21879;BME280;27908;42.708;23.278;2022-07-29T10:10:27;58324.13;;;30.11;49.68
21879;BME280;27908;42.708;23.278;2022-07-29T10:12:57;58291.69;;;30.35;49.98
21879;BME280;27908;42.708;23.278;2022-07-29T10:15:25;58382.75;;;30.68;48.03
21879;BME280;27908;42.708;23.278;2022-07-29T10:17:52;58360.94;;;30.86;47.03
21879;BME280;27908;42.708;23.278;2022-07-29T10:20:19;58147.50;;;31.06;49.05
21879;BME280;27908;42.708;23.278;2022-07-29T10:22:46;58368.31;;;31.28;46.98
21879;BME280;27908;42.708;23.278;2022-07-29T10:25:12;58647.25;;;31.42;43.85
21879;BME280;27908;42.708;23.278;2022-07-29T10:27:39;58610.38;;;31.50;45.76
21879;BME280;27908;42.708;23.278;2022-07-29T10:30:05;58476.38;;;31.73;46.16
21879;BME280;27908;42.708;23.278;2022-07-29T10:35:38;58728.41;;;31.89;45.08
21879;BME280;27908;42.708;23.278;2022-07-29T10:43:42;58948.16;;;31.84;44.40
21879;BME280;27908;42.708;23.278;2022-07-29T10:46:09;59077.66;;;31.90;44.38
21879;BME280;27908;42.708;23.278;2022-07-29T10:48:35;59207.50;;;32.02;43.64
21879;BME280;27908;42.708;23.278;2022-07-29T10:51:04;58951.34;;;32.24;44.68
21879;BME280;27908;42.708;23.278;2022-07-29T10:53:49;59064.13;;;32.51;43.80
21879;BME280;27908;42.708;23.278;2022-07-29T11:01:49;59130.81;;;33.07;42.09
21879;BME280;27908;42.708;23.278;2022-07-29T11:04:16;59239.59;;;33.16;41.28
21879;BME280;27908;42.708;23.278;2022-07-29T11:07:09;59483.09;;;32.97;41.68
21879;BME280;27908;42.708;23.278;2022-07-29T11:09:35;59510.28;;;33.09;40.49
21879;BME280;27908;42.708;23.278;2022-07-29T11:12:01;59415.88;;;33.12;42.43
21879;BME280;27908;42.708;23.278;2022-07-29T11:17:17;59542.97;;;33.37;40.50
21879;BME280;27908;42.708;23.278;2022-07-29T11:19:42;59469.06;;;33.60;42.04
21879;BME280;27908;42.708;23.278;2022-07-29T11:22:10;59853.31;;;33.55;38.45
21879;BME280;27908;42.708;23.278;2022-07-29T11:24:36;59964.09;;;33.52;37.80
21879;BME280;27908;42.708;23.278;2022-07-29T11:27:20;59742.75;;;33.75;40.47
21879;BME280;27908;42.708;23.278;2022-07-29T11:29:54;59851.91;;;33.92;38.94
21879;BME280;27908;42.708;23.278;2022-07-29T11:32:22;59830.53;;;34.08;38.84
21879;BME280;27908;42.708;23.278;2022-07-29T11:34:48;59817.16;;;34.19;38.92
21879;BME280;27908;42.708;23.278;2022-07-29T11:37:16;59942.06;;;34.34;37.98
21879;BME280;27908;42.708;23.278;2022-07-29T11:45:17;60190.09;;;34.36;38.15
21879;BME280;27908;42.708;23.278;2022-07-29T11:50:15;60329.03;;;34.12;37.42
21879;BME280;27908;42.708;23.278;2022-07-29T11:52:43;60367.00;;;34.19;37.82
21879;BME280;27908;42.708;23.278;2022-07-29T11:55:21;60264.47;;;34.28;38.93
21879;BME280;27908;42.708;23.278;2022-07-29T11:57:56;60255.66;;;34.51;37.46
21879;BME280;27908;42.708;23.278;2022-07-29T12:00:39;60315.34;;;34.47;37.56
21879;BME280;27908;42.708;23.278;2022-07-29T12:03:09;60532.00;;;34.20;36.60
21879;BME280;27908;42.708;23.278;2022-07-29T12:05:39;60345.94;;;34.44;39.39
21879;BME280;27908;42.708;23.278;2022-07-29T12:08:20;60318.78;;;34.76;39.15
21879;BME280;27908;42.708;23.278;2022-07-29T12:10:48;60444.34;;;34.96;36.95
21879;BME280;27908;42.708;23.278;2022-07-29T12:13:17;60326.41;;;35.19;37.73
21879;BME280;27908;42.708;23.278;2022-07-29T12:15:52;60429.44;;;35.32;36.64
21879;BME280;27908;42.708;23.278;2022-07-29T12:18:18;60630.72;;;35.13;35.33
21879;BME280;27908;42.708;23.278;2022-07-29T12:20:46;60568.78;;;35.17;36.25
21879;BME280;27908;42.708;23.278;2022-07-29T12:23:12;60592.63;;;35.23;36.10
21879;BME280;27908;42.708;23.278;2022-07-29T12:25:38;60597.38;;;35.44;35.91
21879;BME280;27908;42.708;23.278;2022-07-29T12:28:06;60548.19;;;35.43;36.52
21879;BME280;27908;42.708;23.278;2022-07-29T12:30:38;60511.56;;;35.84;36.29
21879;BME280;27908;42.708;23.278;2022-07-29T12:33:22;60423.28;;;36.16;35.90
21879;BME280;27908;42.708;23.278;2022-07-29T12:35:51;60367.13;;;36.35;36.31
21879;BME280;27908;42.708;23.278;2022-07-29T12:38:17;60585.22;;;36.46;34.40
21879;BME280;27908;42.708;23.278;2022-07-29T12:40:44;60478.16;;;36.89;34.47
21879;BME280;27908;42.708;23.278;2022-07-29T12:43:14;60683.00;;;36.92;33.09
21879;BME280;27908;42.708;23.278;2022-07-29T12:45:41;60555.25;;;37.14;34.03
21879;BME280;27908;42.708;23.278;2022-07-29T12:48:07;60801.09;;;37.07;32.78
21879;BME280;27908;42.708;23.278;2022-07-29T12:50:51;60701.47;;;37.14;32.71
21879;BME280;27908;42.708;23.278;2022-07-29T12:53:16;60678.34;;;37.67;32.58
21879;BME280;27908;42.708;23.278;2022-07-29T12:55:47;60742.44;;;37.70;32.35
21879;BME280;27908;42.708;23.278;2022-07-29T12:58:45;60785.09;;;37.94;31.67
21879;BME280;27908;42.708;23.278;2022-07-29T13:03:50;60918.28;;;38.24;31.12
21879;BME280;27908;42.708;23.278;2022-07-29T13:06:32;60893.97;;;38.73;31.03
21879;BME280;27908;42.708;23.278;2022-07-29T13:09:09;60827.47;;;39.12;30.76
21879;BME280;27908;42.708;23.278;2022-07-29T13:11:40;60972.03;;;39.42;29.16
21879;BME280;27908;42.708;23.278;2022-07-29T13:14:08;60891.00;;;40.15;28.65
21879;BME280;27908;42.708;23.278;2022-07-29T13:16:35;60689.44;;;41.10;29.01
21879;BME280;27908;42.708;23.278;2022-07-29T13:19:11;60692.44;;;42.05;27.37
21879;BME280;27908;42.708;23.278;2022-07-29T13:21:37;61192.25;;;42.12;26.40
21879;BME280;27908;42.708;23.278;2022-07-29T13:24:06;61213.13;;;42.41;26.36
21879;BME280;27908;42.708;23.278;2022-07-29T13:26:32;61543.13;;;42.55;25.32
21879;BME280;27908;42.708;23.278;2022-07-29T13:28:58;61525.78;;;42.56;25.93
21879;BME280;27908;42.708;23.278;2022-07-29T13:31:23;61679.03;;;42.89;25.89